createdAt,value
2018-12-21T00:01:50.279Z,9.40
2018-12-21T00:04:19.067Z,9.50
2018-12-21T00:06:47.862Z,9.50
2018-12-21T00:09:16.859Z,9.40
2018-12-21T00:11:45.665Z,9.50
2018-12-21T00:14:14.500Z,9.50
2018-12-21T00:16:43.336Z,9.50
2018-12-21T00:19:12.150Z,9.60
2018-12-21T00:21:42.003Z,9.50
2018-12-21T00:24:10.811Z,9.50
2018-12-21T00:26:39.610Z,9.50
2018-12-21T00:29:08.423Z,9.50
2018-12-21T00:31:42.693Z,9.50
2018-12-21T00:34:17.019Z,9.50
2018-12-21T00:36:51.202Z,9.50
2018-12-21T00:39:25.451Z,9.50
2018-12-21T00:41:53.567Z,9.50
2018-12-21T00:44:39.951Z,9.50
2018-12-21T00:47:13.074Z,9.50
2018-12-21T00:49:42.618Z,9.50
2018-12-21T00:52:11.433Z,9.40
2018-12-21T00:54:40.266Z,9.50
2018-12-21T00:57:09.096Z,9.50
2018-12-21T00:59:37.882Z,9.40
2018-12-21T01:02:07.076Z,9.40
2018-12-21T01:04:35.980Z,9.40
2018-12-21T01:07:04.938Z,9.50
2018-12-21T01:09:33.999Z,9.50
2018-12-21T01:12:03.728Z,9.40
2018-12-21T01:14:32.617Z,9.40
2018-12-21T01:17:01.542Z,9.40
2018-12-21T01:19:30.406Z,9.40
2018-12-21T01:21:59.360Z,9.50
2018-12-21T01:24:28.216Z,9.50
2018-12-21T01:26:57.231Z,9.50
2018-12-21T01:29:26.087Z,9.40
2018-12-21T01:31:54.903Z,9.40
2018-12-21T01:34:23.705Z,9.40
2018-12-21T01:36:52.625Z,9.40
2018-12-21T01:39:21.442Z,9.50
2018-12-21T01:41:50.219Z,9.40
2018-12-21T01:44:19.058Z,9.50
2018-12-21T01:46:47.846Z,9.50
2018-12-21T01:49:16.644Z,9.50
2018-12-21T01:51:47.279Z,9.50
2018-12-21T01:54:16.215Z,9.50
2018-12-21T01:56:45.035Z,9.50
2018-12-21T01:59:13.790Z,9.50
2018-12-21T02:01:42.568Z,9.50
2018-12-21T02:04:11.486Z,9.50
2018-12-21T02:06:41.333Z,9.50
2018-12-21T02:09:10.107Z,9.50
2018-12-21T02:11:38.889Z,9.50
2018-12-21T02:14:07.682Z,9.50
2018-12-21T02:16:37.523Z,9.50
2018-12-21T02:19:06.393Z,9.50
2018-12-21T02:21:35.195Z,9.50
2018-12-21T02:24:04.146Z,9.50
2018-12-21T02:26:33.039Z,9.50
2018-12-21T02:29:01.870Z,9.50
2018-12-21T02:31:30.720Z,9.40
2018-12-21T02:33:59.505Z,9.50
2018-12-21T02:36:28.304Z,9.40
2018-12-21T02:38:57.102Z,9.40
2018-12-21T02:41:25.886Z,9.40
2018-12-21T02:43:54.663Z,9.40
2018-12-21T02:46:23.450Z,9.40
2018-12-21T02:48:53.200Z,9.40
2018-12-21T02:51:21.983Z,9.40
2018-12-21T02:53:50.760Z,9.40
2018-12-21T02:56:19.551Z,9.40
2018-12-21T02:58:48.426Z,9.40
2018-12-21T03:01:17.290Z,9.40
2018-12-21T03:03:46.091Z,9.40
2018-12-21T03:06:15.022Z,9.40
2018-12-21T03:08:43.809Z,9.40
2018-12-21T03:11:12.586Z,9.40
2018-12-21T03:13:41.388Z,9.40
2018-12-21T03:16:10.165Z,9.30
2018-12-21T03:18:39.014Z,9.30
2018-12-21T03:21:07.766Z,9.30
2018-12-21T03:23:36.542Z,9.30
2018-12-21T03:26:05.386Z,9.40
2018-12-21T03:28:34.226Z,9.40
2018-12-21T03:31:03.008Z,9.40
2018-12-21T03:33:31.829Z,9.30
2018-12-21T03:36:00.692Z,9.30
2018-12-21T03:38:29.463Z,9.40
2018-12-21T03:40:58.330Z,9.40
2018-12-21T03:43:27.112Z,9.50
2018-12-21T03:45:55.903Z,9.40
2018-12-21T03:48:24.722Z,9.40
2018-12-21T03:50:53.540Z,9.50
2018-12-21T03:53:22.464Z,9.60
2018-12-21T03:55:51.242Z,9.60
2018-12-21T03:58:20.188Z,9.60
2018-12-21T04:00:49.026Z,9.60
2018-12-21T04:03:17.838Z,9.70
2018-12-21T04:05:46.642Z,9.70
2018-12-21T04:08:15.419Z,9.70
2018-12-21T04:10:44.256Z,9.70
2018-12-21T04:13:13.063Z,9.80
2018-12-21T04:15:41.847Z,9.90
2018-12-21T04:18:10.678Z,9.80
2018-12-21T04:20:39.483Z,9.70
2018-12-21T04:23:08.276Z,9.70
2018-12-21T04:25:37.096Z,9.60
2018-12-21T04:28:05.882Z,9.50
2018-12-21T04:30:34.667Z,9.40
2018-12-21T04:33:03.475Z,9.30
2018-12-21T04:35:32.292Z,9.30
2018-12-21T04:38:01.073Z,9.20
2018-12-21T04:40:29.946Z,9.20
2018-12-21T04:42:58.728Z,9.20
2018-12-21T04:45:27.607Z,9.10
2018-12-21T04:47:56.415Z,9.10
2018-12-21T04:50:25.204Z,9.00
2018-12-21T04:52:53.991Z,8.90
2018-12-21T04:55:22.810Z,8.90
2018-12-21T04:57:51.708Z,8.90
2018-12-21T05:00:20.632Z,8.90
2018-12-21T05:02:49.436Z,8.90
2018-12-21T05:05:18.230Z,8.80
2018-12-21T05:07:47.008Z,8.80
2018-12-21T05:10:15.796Z,8.70
2018-12-21T05:12:44.679Z,8.70
2018-12-21T05:15:13.471Z,8.80
2018-12-21T05:17:42.255Z,8.70
2018-12-21T05:20:11.066Z,8.70
2018-12-21T05:22:39.972Z,8.60
2018-12-21T05:25:08.832Z,8.60
2018-12-21T05:27:37.679Z,8.60
2018-12-21T05:30:08.019Z,8.50
2018-12-21T05:32:36.796Z,8.60
2018-12-21T05:35:05.690Z,8.60
2018-12-21T05:37:34.503Z,8.70
2018-12-21T05:40:03.725Z,8.70
2018-12-21T05:42:32.539Z,8.70
2018-12-21T05:45:01.427Z,8.70
2018-12-21T05:47:31.259Z,8.70
2018-12-21T05:50:00.077Z,8.70
2018-12-21T05:52:28.864Z,8.60
2018-12-21T05:54:57.716Z,8.60
2018-12-21T05:57:27.068Z,8.60
2018-12-21T05:59:55.846Z,8.60
2018-12-21T06:02:24.645Z,8.60
2018-12-21T06:04:53.530Z,8.60
2018-12-21T06:07:23.244Z,8.60
2018-12-21T06:09:52.059Z,8.60
2018-12-21T06:12:20.813Z,8.60
2018-12-21T06:14:49.730Z,8.60
2018-12-21T06:17:18.509Z,8.60
2018-12-21T06:19:47.296Z,8.60
2018-12-21T06:22:16.070Z,8.60
2018-12-21T06:24:44.885Z,8.60
2018-12-21T06:27:13.679Z,8.60
2018-12-21T06:29:42.622Z,8.50
2018-12-21T06:32:11.405Z,8.50
2018-12-21T06:34:40.199Z,8.50
2018-12-21T06:37:09.020Z,8.60
2018-12-21T06:39:37.907Z,8.60
2018-12-21T06:42:06.736Z,8.60
2018-12-21T06:44:35.554Z,8.60
2018-12-21T06:47:04.402Z,8.60
2018-12-21T06:49:34.511Z,8.60
2018-12-21T06:52:03.407Z,8.60
2018-12-21T06:54:32.188Z,8.60
2018-12-21T06:57:01.094Z,8.60
2018-12-21T06:59:30.106Z,8.60
2018-12-21T07:01:58.938Z,8.70
2018-12-21T07:04:27.781Z,8.60
2018-12-21T07:06:56.546Z,8.60
2018-12-21T07:09:25.350Z,8.60
2018-12-21T07:11:54.226Z,8.70
2018-12-21T07:14:23.167Z,8.60
2018-12-21T07:16:51.963Z,8.70
2018-12-21T07:19:20.858Z,8.60
2018-12-21T07:21:49.668Z,8.60
2018-12-21T07:24:18.468Z,8.70
2018-12-21T07:26:47.253Z,8.70
2018-12-21T07:29:16.091Z,8.70
2018-12-21T07:31:44.899Z,8.70
2018-12-21T07:34:13.694Z,8.70
2018-12-21T07:36:42.488Z,8.70
2018-12-21T07:39:11.259Z,8.70
2018-12-21T07:41:40.084Z,8.70
2018-12-21T07:44:08.893Z,8.70
2018-12-21T07:46:37.709Z,8.80
2018-12-21T07:49:06.519Z,8.80
2018-12-21T07:51:37.363Z,8.80
2018-12-21T07:54:07.703Z,8.90
2018-12-21T07:56:36.493Z,8.90
2018-12-21T07:59:05.318Z,8.90
2018-12-21T08:01:34.147Z,9.00
2018-12-21T08:04:02.990Z,8.90
2018-12-21T08:06:31.871Z,9.00
2018-12-21T08:09:01.742Z,9.00
2018-12-21T08:11:30.577Z,9.00
2018-12-21T08:13:59.443Z,9.00
2018-12-21T08:16:28.258Z,9.10
2018-12-21T08:18:57.058Z,9.10
2018-12-21T08:21:25.950Z,9.20
2018-12-21T08:23:54.804Z,9.10
2018-12-21T08:26:23.618Z,9.10
2018-12-21T08:28:52.541Z,9.20
2018-12-21T08:31:21.314Z,9.10
2018-12-21T08:33:50.263Z,9.10
2018-12-21T08:36:19.232Z,9.10
2018-12-21T08:38:48.039Z,9.10
2018-12-21T08:41:16.810Z,9.10
2018-12-21T08:43:45.670Z,9.10
2018-12-21T08:46:14.566Z,9.20
2018-12-21T08:48:43.462Z,9.20
2018-12-21T08:51:12.283Z,9.20
2018-12-21T08:53:41.082Z,9.20
2018-12-21T08:56:09.894Z,9.10
2018-12-21T08:58:38.710Z,9.20
2018-12-21T09:01:07.489Z,9.20
2018-12-21T09:03:36.250Z,9.10
2018-12-21T09:06:05.072Z,9.20
2018-12-21T09:08:33.857Z,9.10
2018-12-21T09:11:02.610Z,9.10
2018-12-21T09:13:31.474Z,9.10
2018-12-21T09:16:00.327Z,9.20
2018-12-21T09:18:29.141Z,9.20
2018-12-21T09:20:57.927Z,9.20
2018-12-21T09:23:26.742Z,9.20
2018-12-21T09:25:55.510Z,9.20
2018-12-21T09:28:24.302Z,9.20
2018-12-21T09:30:53.206Z,9.20
2018-12-21T09:33:22.003Z,9.30
2018-12-21T09:35:50.768Z,9.30
2018-12-21T09:38:19.570Z,9.40
2018-12-21T09:40:48.458Z,9.40
2018-12-21T09:43:17.341Z,9.30
2018-12-21T09:45:46.089Z,9.30
2018-12-21T09:48:14.874Z,9.40
2018-12-21T09:50:44.787Z,9.40
2018-12-21T09:53:13.571Z,9.40
2018-12-21T09:55:42.448Z,9.50
2018-12-21T09:58:11.205Z,9.50
2018-12-21T10:00:39.985Z,9.60
2018-12-21T10:03:08.860Z,9.50
2018-12-21T10:05:37.659Z,9.50
2018-12-21T10:08:06.449Z,9.60
2018-12-21T10:10:35.245Z,9.50
2018-12-21T10:13:04.086Z,9.60
2018-12-21T10:15:32.923Z,9.60
2018-12-21T10:18:01.900Z,9.60
2018-12-21T10:20:30.809Z,9.70
2018-12-21T10:22:59.681Z,9.70
2018-12-21T10:25:28.486Z,9.60
2018-12-21T10:27:57.302Z,9.70
2018-12-21T10:30:26.299Z,9.80
2018-12-21T10:32:55.189Z,9.90
2018-12-21T10:35:24.058Z,9.90
2018-12-21T10:37:52.912Z,10.00
2018-12-21T10:40:21.847Z,10.10
2018-12-21T10:42:50.654Z,10.20
2018-12-21T10:45:19.638Z,10.20
2018-12-21T10:47:48.422Z,10.30
2018-12-21T10:50:17.298Z,10.40
2018-12-21T10:52:46.146Z,10.50
2018-12-21T10:55:14.950Z,10.70
2018-12-21T10:57:43.744Z,10.80
2018-12-21T11:00:12.937Z,11.00
2018-12-21T11:02:42.009Z,11.30
2018-12-21T11:05:10.792Z,11.50
2018-12-21T11:07:39.737Z,11.80
2018-12-21T11:10:10.726Z,11.90
2018-12-21T11:12:39.688Z,12.00
2018-12-21T11:15:08.552Z,12.10
2018-12-21T11:17:37.884Z,12.20
2018-12-21T11:20:08.942Z,12.30
2018-12-21T11:22:37.766Z,12.40
2018-12-21T11:25:09.226Z,12.50
2018-12-21T11:27:38.113Z,12.60
2018-12-21T11:30:08.836Z,12.60
2018-12-21T11:32:37.680Z,12.60
2018-12-21T11:35:07.044Z,12.70
2018-12-21T11:37:36.266Z,12.70
2018-12-21T11:40:05.493Z,12.80
2018-12-21T11:42:34.281Z,12.90
2018-12-21T11:45:03.208Z,13.00
2018-12-21T11:47:32.087Z,13.10
2018-12-21T11:50:00.944Z,13.10
2018-12-21T11:52:29.866Z,13.20
2018-12-21T11:54:59.109Z,13.20
2018-12-21T11:57:28.028Z,13.30
2018-12-21T11:59:56.893Z,13.30
2018-12-21T12:02:25.825Z,13.30
2018-12-21T12:04:54.637Z,13.30
2018-12-21T12:07:23.500Z,13.20
2018-12-21T12:09:52.498Z,13.30
2018-12-21T12:12:21.302Z,13.30
2018-12-21T12:14:51.010Z,13.30
2018-12-21T12:17:19.791Z,13.40
2018-12-21T12:19:48.610Z,13.50
2018-12-21T12:22:17.546Z,13.50
2018-12-21T12:24:52.779Z,13.60
2018-12-21T12:27:17.164Z,13.60
2018-12-21T12:29:45.956Z,13.60
2018-12-21T12:32:14.767Z,13.60
2018-12-21T12:34:44.354Z,13.60
2018-12-21T12:37:13.154Z,13.60
2018-12-21T12:39:42.060Z,13.60
2018-12-21T12:42:10.906Z,13.60
2018-12-21T12:44:39.699Z,13.60
2018-12-21T12:47:08.868Z,13.50
2018-12-21T12:49:37.653Z,13.60
2018-12-21T12:52:06.541Z,13.60
2018-12-21T12:54:35.322Z,13.60
2018-12-21T12:57:04.483Z,13.60
2018-12-21T12:59:33.265Z,13.60
2018-12-21T13:02:02.140Z,13.60
2018-12-21T13:04:30.963Z,13.60
2018-12-21T13:06:59.773Z,13.70
2018-12-21T13:09:28.568Z,13.70
2018-12-21T13:11:57.445Z,13.80
2018-12-21T13:14:26.415Z,13.90
2018-12-21T13:16:55.319Z,14.00
2018-12-21T13:19:24.176Z,14.10
2018-12-21T13:21:53.050Z,14.10
2018-12-21T13:24:21.839Z,14.10
2018-12-21T13:26:50.734Z,14.10
2018-12-21T13:29:19.570Z,14.10
2018-12-21T13:31:48.389Z,14.10
2018-12-21T13:34:17.198Z,14.10
2018-12-21T13:36:46.005Z,14.10
2018-12-21T13:39:15.247Z,14.10
2018-12-21T13:41:48.345Z,14.10
2018-12-21T13:44:17.122Z,14.10
2018-12-21T13:46:46.100Z,14.10
2018-12-21T13:49:14.898Z,14.10
2018-12-21T13:51:43.706Z,14.10
2018-12-21T13:54:13.649Z,14.00
2018-12-21T13:56:43.154Z,14.00
2018-12-21T13:59:12.050Z,14.00
2018-12-21T14:01:40.912Z,13.90
2018-12-21T14:04:09.686Z,13.90
2018-12-21T14:06:38.616Z,13.80
2018-12-21T14:09:07.990Z,13.80
2018-12-21T14:11:36.886Z,13.80
2018-12-21T14:14:05.691Z,13.80
2018-12-21T14:16:34.529Z,13.80
2018-12-21T14:19:03.522Z,13.70
2018-12-21T14:21:32.358Z,13.70
2018-12-21T14:24:01.445Z,13.70
2018-12-21T14:26:30.384Z,13.60
2018-12-21T14:28:59.799Z,13.60
2018-12-21T14:31:28.579Z,13.60
2018-12-21T14:33:57.464Z,13.60
2018-12-21T14:36:26.611Z,13.60
2018-12-21T14:38:55.471Z,13.60
2018-12-21T14:41:25.572Z,13.50
2018-12-21T14:43:54.877Z,13.50
2018-12-21T14:46:23.709Z,13.50
2018-12-21T14:48:52.614Z,13.40
2018-12-21T14:51:21.456Z,13.40
2018-12-21T14:53:50.254Z,13.40
2018-12-21T14:56:19.086Z,13.40
2018-12-21T14:58:47.887Z,13.40
2018-12-21T15:01:16.754Z,13.40
2018-12-21T15:03:45.623Z,13.30
2018-12-21T15:06:14.411Z,13.30
2018-12-21T15:08:43.202Z,13.30
2018-12-21T15:11:12.098Z,13.30
2018-12-21T15:13:40.898Z,13.30
2018-12-21T15:16:10.799Z,13.30
2018-12-21T15:18:39.768Z,13.30
2018-12-21T15:21:08.723Z,13.30
2018-12-21T15:23:37.650Z,13.30
2018-12-21T15:26:06.619Z,13.20
2018-12-21T15:28:35.478Z,13.20
2018-12-21T15:31:04.314Z,13.20
2018-12-21T15:33:33.108Z,13.20
2018-12-21T15:36:01.926Z,13.20
2018-12-21T15:38:30.824Z,13.10
2018-12-21T15:40:59.653Z,13.20
2018-12-21T15:43:28.446Z,13.20
2018-12-21T15:45:57.258Z,13.20
2018-12-21T15:48:26.087Z,13.10
2018-12-21T15:50:54.862Z,13.10
2018-12-21T15:53:23.639Z,13.10
2018-12-21T15:55:54.946Z,13.00
2018-12-21T15:58:23.185Z,13.10
2018-12-21T16:00:51.946Z,13.10
2018-12-21T16:03:20.745Z,13.10
2018-12-21T16:05:49.539Z,13.10
2018-12-21T16:08:18.359Z,13.10
2018-12-21T16:10:47.146Z,13.00
2018-12-21T16:13:15.992Z,13.00
2018-12-21T16:15:44.754Z,13.00
2018-12-21T16:18:13.758Z,13.00
2018-12-21T16:20:42.599Z,13.00
2018-12-21T16:23:11.412Z,12.90
2018-12-21T16:25:40.206Z,12.90
2018-12-21T16:28:09.007Z,12.90
2018-12-21T16:30:38.124Z,12.90
2018-12-21T16:33:06.998Z,12.90
2018-12-21T16:35:35.867Z,12.90
2018-12-21T16:38:04.759Z,12.90
2018-12-21T16:40:33.518Z,12.80
2018-12-21T16:43:02.300Z,12.80
2018-12-21T16:45:31.118Z,12.80
2018-12-21T16:47:59.917Z,12.80
2018-12-21T16:50:28.707Z,12.80
2018-12-21T16:52:57.584Z,12.70
2018-12-21T16:55:26.390Z,12.70
2018-12-21T16:57:55.179Z,12.70
2018-12-21T17:00:23.971Z,12.60
2018-12-21T17:02:52.775Z,12.60
2018-12-21T17:05:21.720Z,12.60
2018-12-21T17:07:50.683Z,12.60
2018-12-21T17:10:22.328Z,12.60
2018-12-21T17:12:51.211Z,12.60
2018-12-21T17:15:20.137Z,12.60
2018-12-21T17:17:48.999Z,12.60
2018-12-21T17:20:17.902Z,12.50
2018-12-21T17:22:46.724Z,12.50
2018-12-21T17:25:15.729Z,12.50
2018-12-21T17:27:44.574Z,12.50
2018-12-21T17:30:13.747Z,12.50
2018-12-21T17:32:42.544Z,12.50
2018-12-21T17:35:11.495Z,12.40
2018-12-21T17:37:40.387Z,12.40
2018-12-21T17:40:11.162Z,12.40
2018-12-21T17:42:39.937Z,12.40
2018-12-21T17:45:11.002Z,12.40
2018-12-21T17:47:39.832Z,12.40
2018-12-21T17:50:10.002Z,12.30
2018-12-21T17:52:38.766Z,12.30
2018-12-21T17:55:08.891Z,12.30
2018-12-21T17:57:37.660Z,12.30
2018-12-21T18:00:11.426Z,12.30
2018-12-21T18:02:40.277Z,12.20
2018-12-21T18:05:09.160Z,12.30
2018-12-21T18:07:38.174Z,12.30
2018-12-21T18:10:08.878Z,12.30
2018-12-21T18:12:37.637Z,12.30
2018-12-21T18:15:07.704Z,12.30
2018-12-21T18:17:36.505Z,12.20
2018-12-21T18:20:08.775Z,12.20
2018-12-21T18:22:37.574Z,12.20
2018-12-21T18:25:14.045Z,12.20
2018-12-21T18:27:44.690Z,12.20
2018-12-21T18:30:20.223Z,12.20
2018-12-21T18:33:10.622Z,12.20
2018-12-21T18:35:42.118Z,12.20
2018-12-21T18:38:16.413Z,12.10
2018-12-21T18:40:45.219Z,12.20
2018-12-21T18:43:14.066Z,12.10
2018-12-21T18:45:42.847Z,12.00
2018-12-21T18:48:11.646Z,12.00
2018-12-21T18:50:40.511Z,12.00
2018-12-21T18:53:09.306Z,12.00
2018-12-21T18:55:38.213Z,12.00
2018-12-21T18:58:07.950Z,11.90
2018-12-21T19:00:37.370Z,11.90
2018-12-21T19:03:06.658Z,12.00
2018-12-21T19:05:35.463Z,12.00
2018-12-21T19:08:04.248Z,12.00
2018-12-21T19:10:33.131Z,12.00
2018-12-21T19:13:01.906Z,12.00
2018-12-21T19:15:30.730Z,12.00
2018-12-21T19:17:59.783Z,12.00
2018-12-21T19:20:29.775Z,12.00
2018-12-21T19:22:58.630Z,11.90
2018-12-21T19:25:27.534Z,11.90
2018-12-21T19:27:56.398Z,11.90
2018-12-21T19:30:25.369Z,11.90
2018-12-21T19:32:54.214Z,11.80
2018-12-21T19:35:27.660Z,11.80
2018-12-21T19:37:53.868Z,11.90
2018-12-21T19:40:22.652Z,11.90
2018-12-21T19:42:51.516Z,11.90
2018-12-21T19:45:20.380Z,11.90
2018-12-21T19:47:49.533Z,12.00
2018-12-21T19:50:18.346Z,11.90
2018-12-21T19:52:47.210Z,12.00
2018-12-21T19:55:52.787Z,12.00
2018-12-21T19:58:21.576Z,12.00
2018-12-21T20:00:50.579Z,12.00
2018-12-21T20:03:19.359Z,12.10
2018-12-21T20:05:48.294Z,12.00
2018-12-21T20:08:20.614Z,12.00
2018-12-21T20:10:49.443Z,12.10
2018-12-21T20:13:18.245Z,12.00
2018-12-21T20:15:47.483Z,12.00
2018-12-21T20:18:16.356Z,12.00
2018-12-21T20:20:45.142Z,12.00
2018-12-21T20:23:14.807Z,12.00
2018-12-21T20:25:43.633Z,12.00
2018-12-21T20:28:12.430Z,11.90
2018-12-21T20:30:41.210Z,12.00
2018-12-21T20:33:10.428Z,12.00
2018-12-21T20:35:41.371Z,12.00
2018-12-21T20:38:11.150Z,12.00
2018-12-21T20:40:40.159Z,12.00
2018-12-21T20:43:09.227Z,12.00
2018-12-21T20:45:38.615Z,11.90
2018-12-21T20:48:07.908Z,11.90
2018-12-21T20:50:36.726Z,11.90
2018-12-21T20:53:05.559Z,11.90
2018-12-21T20:55:34.365Z,11.90
2018-12-21T20:58:09.232Z,11.90
2018-12-21T21:00:38.239Z,11.90
2018-12-21T21:03:07.016Z,11.80
2018-12-21T21:05:36.138Z,11.80
2018-12-21T21:08:06.026Z,11.80
2018-12-21T21:10:34.805Z,11.70
2018-12-21T21:13:03.769Z,11.60
2018-12-21T21:15:33.270Z,11.70
2018-12-21T21:18:02.061Z,11.60
2018-12-21T21:20:31.909Z,11.60
2018-12-21T21:23:00.748Z,11.60
2018-12-21T21:25:29.524Z,11.50
2018-12-21T21:27:58.369Z,11.50
2018-12-21T21:30:28.322Z,11.50
2018-12-21T21:32:57.166Z,11.50
2018-12-21T21:35:26.140Z,11.50
2018-12-21T21:37:55.046Z,11.50
2018-12-21T21:40:23.981Z,11.50
2018-12-21T21:42:57.436Z,11.50
2018-12-21T21:45:23.588Z,11.50
2018-12-21T21:47:52.515Z,11.50
2018-12-21T21:50:21.343Z,11.40
2018-12-21T21:52:50.224Z,11.40
2018-12-21T21:55:18.995Z,11.40
2018-12-21T21:57:47.783Z,11.40
2018-12-21T22:00:16.679Z,11.40
2018-12-21T22:02:46.338Z,11.50
2018-12-21T22:05:15.132Z,11.50
2018-12-21T22:07:43.938Z,11.50
2018-12-21T22:10:12.715Z,11.50
2018-12-21T22:12:41.514Z,11.50
2018-12-21T22:15:11.078Z,11.50
2018-12-21T22:17:40.037Z,11.50
2018-12-21T22:20:11.162Z,11.40
2018-12-21T22:22:40.051Z,11.30
2018-12-21T22:25:08.951Z,11.30
2018-12-21T22:27:37.728Z,11.30
2018-12-21T22:30:09.285Z,11.30
2018-12-21T22:32:38.299Z,11.20
2018-12-21T22:37:46.034Z,11.20
2018-12-21T22:40:14.911Z,11.20
2018-12-21T22:42:43.720Z,11.20
2018-12-21T22:45:12.518Z,11.20
2018-12-21T22:47:41.303Z,11.20
2018-12-21T22:50:10.281Z,11.20
2018-12-21T22:52:39.097Z,11.20
2018-12-21T22:55:08.716Z,11.20
2018-12-21T22:57:37.506Z,11.20
2018-12-21T23:00:12.184Z,11.20
2018-12-21T23:02:42.079Z,11.20
2018-12-21T23:05:10.875Z,11.20
2018-12-21T23:07:39.779Z,11.20
2018-12-21T23:10:08.858Z,11.20
2018-12-21T23:12:37.775Z,11.20
2018-12-21T23:15:06.689Z,11.20
2018-12-21T23:17:35.565Z,11.20
2018-12-21T23:20:04.718Z,11.20
2018-12-21T23:22:33.506Z,11.20
2018-12-21T23:25:03.596Z,11.20
2018-12-21T23:27:32.651Z,11.20
2018-12-21T23:30:01.518Z,11.20
2018-12-21T23:32:30.337Z,11.20
2018-12-21T23:34:59.143Z,11.20
2018-12-21T23:37:27.927Z,11.20
2018-12-21T23:39:56.750Z,11.20
2018-12-21T23:42:25.564Z,11.20
2018-12-21T23:44:54.462Z,11.30
2018-12-21T23:47:23.268Z,11.20
2018-12-21T23:49:52.207Z,11.30
2018-12-21T23:52:21.079Z,11.30
2018-12-21T23:54:49.913Z,11.30
2018-12-21T23:57:19.840Z,11.30
2018-12-21T23:59:48.754Z,11.40
